AirNav   Everest Fuels
 
 443 users online  

3FL0 Mount Royal Airport
Welaka, Florida, USA

GOING TO WELAKA?


FAA INFORMATION EFFECTIVE 22 APRIL 2021

Location

FAA Identifier: 3FL0
Lat/Long: 29-26-09.8900N 081-39-24.2800W
29-26.164833N 081-39.404667W
29.4360806,-81.6567444
(estimated)
Elevation: 41 ft. / 12 m (estimated)
Variation: 04W (1995)
From city: 3 miles S of WELAKA, FL
Time zone: UTC -4 (UTC -5 during Standard Time)
Zip code: 32193

Airport Operations

Airport use: Private use. Permission required prior to landing
Activation date: 03/1999
Control tower: no
ARTCC: JACKSONVILLE CENTER
FSS: GAINESVILLE FLIGHT SERVICE STATION
Attendance: UNATNDD
Wind indicator: yes
Segmented circle: no
Lights: SS-SR

Airport Communications

WX AWOS-3 at 28J (13 nm N): 119.925 (386-312-2212)

Nearby radio navigation aids

VOR radial/distance  VOR name  Freq  Var
OMNr286/29.5ORMOND BEACH VORTAC112.6000E
OCFr062/33.6OCALA VORTAC113.7000E
SGJr215/35.6ST AUGUSTINE VOR/DME109.4006W
GNVr120/35.6GATORS VORTAC116.2004W

 
NDB name  Hdg/Dist  Freq  Var  ID
REYNOLDS187/31.933807WRYD .-. -.-- -..

Airport Services

Runway Information

Runway 8/26

Dimensions: 3000 x 50 ft. / 914 x 15 m
Surface: asphalt, in good condition
Runway edge lights: medium intensity
RUNWAY 8  RUNWAY 26
Traffic pattern: leftleft
Displaced threshold: 500 ft.no
Obstructions: 50 ft. trees, 300 ft. from runwaynone

Airport Ownership and Management from official FAA records

Ownership: Privately-owned
Owner: MRAPPOA
111 INDIAN MOUND DR
CRESCENT CITY, FL 32112
Phone 386-559-2811
MRAPPOA - MT ROYAL AIRPARK PROPERTY OWNERS ASSOC.
Manager: MARSHALL TETTERTON
371 TIMUCUAN TRAIL
CRESCENT CITY, FL 32112
Phone (386) 872-0106

Airport Operational Statistics

Aircraft based on the field: 19
Single engine airplanes: 17
Helicopters: 1
Ultralights: 1
    

Additional Remarks

CTAF 123.15
FOR CD CTC JACKSONVILLE APCH AT 904-741-0284.
BIRDS, DEER & OTR ANIMALS ON AND INVOF ARPT.

Instrument Procedures

There are no published instrument procedures at 3FL0.

Some nearby airports with instrument procedures:

28J - Palatka Municipal Airport - Lt. Kay Larkin Field (13 nm N)
KFIN - Flagler Executive Airport (24 nm E)
KOMN - Ormond Beach Municipal Airport (30 nm E)
KDED - DeLand Municipal Airport-Sidney H Taylor Field (30 nm SE)
X23 - Umatilla Municipal Airport (31 nm S)
 
Loc | Ops | Rwys | IFR | FBO | Links
Com | Nav | Svcs | Stats | Notes
Area around 3FL0 (Mount Royal Airport)
 
Road maps at: MapQuest Bing Google
 
Aerial photo
WARNING: Photo may not be current or correct
Aerial photo of 3FL0 (Mount Royal Airport)
Photo taken 11-Feb-2007

Do you have a better or more recent aerial photo of Mount Royal Airport that you would like to share? If so, please send us your photo.

 
Sectional chart

 
Airport distance calculator
Flying to Mount Royal Airport? Find the distance to fly.

From to 3FL0

Sunrise and sunset
Times for 15-May-2021
 Local
(UTC-4)
 Zulu
(UTC)
Morning civil twilight06:0910:09
Sunrise06:3510:35
Sunset20:1100:11
Evening civil twilight20:3700:37

Current date and time
Zulu (UTC)  15-May-2021 08:55:56
Local (UTC-4)  15-May-2021 04:55:56
 
METAR
K28J 
13nm N 
150835Z AUTO 00000KT 10SM SCT022 BKN033 OVC046 07/06 A3016 RMK AO2
KFIN 
23nm E 
150835Z AUTO 04005KT 10SM CLR 19/10 A3014 RMK AO2 T01940098
TAF
KDAB 
34nm SE 
150532Z 1506/1606 03008KT P6SM FEW050 FEW250 FM151400 04018G26KT P6SM FEW040 FEW250 FM160300 05010KT P6SM FEW040
KGNV 
36nm NW 
150520Z 1506/1606 02004KT P6SM SKC FM151300 03009KT P6SM FEW250 FM151600 05012G20KT P6SM FEW040 FEW250 FM160100 07008KT P6SM FEW250
KSGJ 
36nm NE 
150520Z 1506/1606 05014G22KT P6SM SKC FM151500 06018G27KT P6SM FEW040 FEW250 FM160100 07011G17KT P6SM FEW250
KLEE 
38nm S 
150532Z 1506/1606 35006KT P6SM FEW060 FEW250 FM151400 05011KT P6SM FEW040 FEW250 FM151800 05013G22KT P6SM SCT040 FM160300 05008KT P6SM FEW040
NOTAMs
Click for the latest NOTAMs
NOTAMs are issued by the DoD/FAA and will open in a separate window not controlled by AirNav.

 

 
 

Would you like to see your business listed on this page?

 If your business provides an interesting product or service to pilots, flight crews, aircraft, or users of the Mount Royal Airport, you should consider listing it here.  To start the listing process, click on the button below
 
Add a business
 

Other Pages about Mount Royal Airport

Update a link
 
Copyright © AirNav, LLC. All rights reserved. Privacy Policy  Contact